Time;durP1;ratioP1;P1;durP2;ratioP2;P2;SDS_P1;SDS_P2;PMS_P1;PMS_P2;Temp;Humidity;BMP_temperature;BMP_pressure;BME280_temperature;BME280_humidity;BME280_pressure;Samples;Min_cycle;Max_cycle;Signal;HPM_P1;HPM_P2
2023/06/07 00:00:06;;;;;;;15.25;4.20;;;12.10;99.90;;;;;;4862743;29;20128;-88
2023/06/07 00:02:59;;;;;;;14.00;4.43;;;12.10;99.90;;;;;;4838615;29;20050;-87
2023/06/07 00:05:31;;;;;;;13.48;4.25;;;12.10;99.90;;;;;;4847260;29;20038;-90
2023/06/07 00:07:57;;;;;;;15.57;5.05;;;12.10;99.90;;;;;;4847708;29;20415;-88
2023/06/07 00:10:30;;;;;;;14.55;4.53;;;12.10;99.90;;;;;;4838326;29;20132;-87
2023/06/07 00:13:06;;;;;;;16.13;4.68;;;12.10;99.90;;;;;;4848136;29;20392;-88
2023/06/07 00:15:37;;;;;;;15.07;4.43;;;12.10;99.90;;;;;;4855499;29;20051;-88
2023/06/07 00:18:07;;;;;;;14.88;4.93;;;12.10;99.90;;;;;;4857969;29;20081;-88
2023/06/07 00:20:36;;;;;;;15.40;4.57;;;12.00;99.90;;;;;;4832115;29;20435;-88
2023/06/07 00:23:08;;;;;;;15.27;4.97;;;12.10;99.90;;;;;;4861638;29;20424;-87
2023/06/07 00:25:39;;;;;;;14.82;4.70;;;12.10;99.90;;;;;;4844762;29;20316;-87
2023/06/07 00:28:15;;;;;;;13.13;4.40;;;12.10;99.90;;;;;;4847863;29;20061;-88
2023/06/07 00:30:47;;;;;;;15.00;4.45;;;12.10;99.90;;;;;;4862035;29;20040;-87
2023/06/07 00:33:21;;;;;;;13.13;5.03;;;12.10;99.90;;;;;;4832245;29;20093;-88
2023/06/07 00:35:53;;;;;;;19.90;4.13;;;12.10;99.90;;;;;;4847448;29;20049;-88
2023/06/07 00:38:36;;;;;;;12.45;4.15;;;12.20;99.90;;;;;;4865864;29;20052;-88
2023/06/07 00:41:09;;;;;;;20.55;4.88;;;12.20;99.90;;;;;;4866252;29;20045;-87
2023/06/07 00:43:38;;;;;;;18.45;5.30;;;12.10;99.90;;;;;;4865157;29;20037;-87
2023/06/07 00:46:07;;;;;;;17.45;4.65;;;12.10;99.90;;;;;;4864996;29;20048;-87
2023/06/07 00:48:36;;;;;;;15.90;4.57;;;12.10;99.90;;;;;;4865435;29;20065;-88
2023/06/07 00:51:02;;;;;;;21.05;5.75;;;12.10;99.90;;;;;;4880866;29;20450;-88
2023/06/07 00:53:31;;;;;;;15.48;4.47;;;12.20;99.90;;;;;;4880601;29;20049;-87
2023/06/07 00:56:01;;;;;;;15.70;4.00;;;12.10;99.90;;;;;;4865507;29;20122;-88
2023/06/07 00:58:38;;;;;;;16.17;4.13;;;12.20;99.90;;;;;;4865408;29;20061;-88
2023/06/07 01:01:20;;;;;;;18.30;4.57;;;12.10;99.90;;;;;;4880756;29;20037;-90
2023/06/07 01:03:55;;;;;;;15.45;4.15;;;12.20;99.90;;;;;;4880402;29;20520;-88
2023/06/07 01:06:22;;;;;;;20.60;4.70;;;12.20;99.90;;;;;;4880703;29;20041;-88
2023/06/07 01:08:58;;;;;;;13.80;4.63;;;12.10;99.90;;;;;;4883086;29;20029;-88
2023/06/07 01:11:33;;;;;;;16.90;4.78;;;12.10;99.90;;;;;;4868784;29;20037;-87
2023/06/07 01:14:04;;;;;;;13.98;3.97;;;12.10;99.90;;;;;;4868902;29;20029;-88
2023/06/07 01:16:32;;;;;;;16.40;4.45;;;12.10;99.90;;;;;;4884189;29;20040;-88
2023/06/07 01:19:06;;;;;;;13.73;4.20;;;12.10;99.90;;;;;;4868858;29;20075;-87
2023/06/07 01:22:02;;;;;;;;;;;;;;;;;;;;;
2023/06/07 01:24:32;;;;;;;14.57;4.30;;;12.10;99.90;;;;;;4883879;29;20367;-88
2023/06/07 01:27:02;;;;;;;17.20;4.60;;;12.10;99.90;;;;;;4868275;29;20081;-88
2023/06/07 01:29:38;;;;;;;14.35;4.30;;;12.00;99.90;;;;;;4854731;29;20033;-88
2023/06/07 01:32:15;;;;;;;15.52;4.35;;;12.00;99.90;;;;;;4868270;29;20097;-87
2023/06/07 01:34:47;;;;;;;16.00;4.25;;;12.10;99.90;;;;;;4883723;29;20045;-88
2023/06/07 01:37:13;;;;;;;18.77;4.22;;;12.10;99.90;;;;;;4883108;29;20057;-88
2023/06/07 01:39:41;;;;;;;14.15;3.78;;;12.10;99.90;;;;;;4867802;29;20069;-89
2023/06/07 01:42:21;;;;;;;19.88;4.65;;;12.10;99.90;;;;;;4869006;29;20033;-88
2023/06/07 01:45:01;;;;;;;18.73;4.68;;;12.10;99.90;;;;;;4883498;29;20151;-88
2023/06/07 01:47:39;;;;;;;13.55;4.43;;;12.10;99.90;;;;;;4883552;29;20025;-88
2023/06/07 01:50:09;;;;;;;22.10;4.93;;;12.00;99.90;;;;;;4883439;29;20029;-88
2023/06/07 01:52:45;;;;;;;15.80;4.05;;;12.10;99.90;;;;;;4883005;29;20041;-89
2023/06/07 01:55:24;;;;;;;15.98;4.60;;;12.10;99.90;;;;;;4868393;29;20047;-88
2023/06/07 01:58:34;;;;;;;18.20;4.57;;;12.10;99.90;;;;;;4853412;29;20041;-87
2023/06/07 02:01:42;;;;;;;14.45;4.75;;;12.00;99.90;;;;;;4867894;29;20045;-88
2023/06/07 02:04:19;;;;;;;17.92;4.10;;;12.00;99.90;;;;;;4882520;29;20461;-88
2023/06/07 02:06:48;;;;;;;17.67;3.70;;;12.00;99.90;;;;;;4882499;29;20388;-88
2023/06/07 02:09:26;;;;;;;13.35;3.17;;;12.00;99.90;;;;;;4882813;29;20044;-87
2023/06/07 02:11:53;;;;;;;19.20;4.20;;;12.00;99.90;;;;;;4882785;29;20029;-88
2023/06/07 02:14:20;;;;;;;14.10;3.70;;;12.00;99.90;;;;;;4882791;29;20363;-88
2023/06/07 02:16:51;;;;;;;13.27;3.53;;;12.10;99.90;;;;;;4882508;29;20407;-88
2023/06/07 02:19:17;;;;;;;15.38;3.67;;;12.00;99.90;;;;;;4882005;29;20025;-88
2023/06/07 02:21:49;;;;;;;10.52;3.53;;;12.00;99.90;;;;;;4882686;29;20044;-87
2023/06/07 02:24:36;;;;;;;13.65;3.75;;;12.00;99.90;;;;;;4867235;29;20037;-87
2023/06/07 02:27:05;;;;;;;14.18;3.70;;;12.00;99.90;;;;;;4867107;29;20047;-88
2023/06/07 02:29:34;;;;;;;18.80;4.05;;;12.00;99.90;;;;;;4867578;29;20157;-88
2023/06/07 02:32:04;;;;;;;17.67;4.20;;;12.00;99.90;;;;;;4866987;29;20064;-88
2023/06/07 02:34:36;;;;;;;16.95;4.63;;;11.90;99.90;;;;;;4882456;29;20037;-87
2023/06/07 02:37:02;;;;;;;15.10;4.13;;;12.00;99.90;;;;;;4866629;29;20057;-88
2023/06/07 02:39:31;;;;;;;14.77;3.60;;;12.00;99.90;;;;;;4867108;29;20039;-88
2023/06/07 02:42:06;;;;;;;16.10;3.63;;;12.00;99.90;;;;;;4882166;29;20052;-88
2023/06/07 02:44:32;;;;;;;19.33;3.70;;;12.00;99.90;;;;;;4882455;29;20036;-88
2023/06/07 02:47:06;;;;;;;18.48;3.92;;;12.10;99.90;;;;;;4851836;29;20029;-88
2023/06/07 02:49:39;;;;;;;16.73;3.85;;;12.10;99.90;;;;;;4883194;29;20037;-88
2023/06/07 02:52:28;;;;;;;13.50;4.07;;;12.10;99.90;;;;;;4871671;29;20041;-88
2023/06/07 02:55:00;;;;;;;11.52;3.63;;;12.10;99.90;;;;;;4882040;29;20111;-88
2023/06/07 02:57:28;;;;;;;17.60;4.43;;;12.10;99.90;;;;;;4866740;29;20116;-88
2023/06/07 02:59:56;;;;;;;19.88;5.05;;;12.10;99.90;;;;;;4866926;29;20147;-88
2023/06/07 03:02:26;;;;;;;15.32;4.68;;;12.10;99.90;;;;;;4882076;29;20065;-88
2023/06/07 03:05:02;;;;;;;14.68;4.43;;;12.10;99.90;;;;;;4867202;29;20032;-88
2023/06/07 03:07:40;;;;;;;13.63;3.67;;;12.10;99.90;;;;;;4882101;29;20041;-88
2023/06/07 03:10:10;;;;;;;18.33;4.15;;;12.10;99.90;;;;;;4866722;29;20384;-88
2023/06/07 03:12:40;;;;;;;16.00;3.45;;;12.10;99.90;;;;;;4881777;29;20036;-88
2023/06/07 03:15:09;;;;;;;14.32;4.00;;;12.10;99.90;;;;;;4866496;29;20543;-87
2023/06/07 03:17:42;;;;;;;15.18;4.13;;;12.10;99.90;;;;;;4875900;29;20040;-87
2023/06/07 03:20:14;;;;;;;17.45;4.72;;;12.20;99.90;;;;;;4884884;29;20330;-88
2023/06/07 03:22:44;;;;;;;16.45;4.18;;;12.10;99.90;;;;;;4900431;29;20035;-89
2023/06/07 03:25:17;;;;;;;15.85;4.57;;;12.10;99.90;;;;;;4884841;29;20069;-87
2023/06/07 03:27:46;;;;;;;13.93;4.45;;;12.10;99.90;;;;;;4884820;29;20115;-88
2023/06/07 03:30:41;;;;;;;14.77;4.43;;;12.10;99.90;;;;;;4884294;29;20033;-88
2023/06/07 03:33:17;;;;;;;13.60;4.85;;;12.20;99.90;;;;;;4885205;29;20052;-88
2023/06/07 03:35:44;;;;;;;12.60;4.20;;;12.10;99.90;;;;;;4869404;29;20045;-88
2023/06/07 03:38:14;;;;;;;14.10;4.00;;;12.20;99.90;;;;;;4884630;29;20044;-88
2023/06/07 03:40:42;;;;;;;13.15;3.60;;;12.20;99.90;;;;;;4884684;29;20036;-88
2023/06/07 03:43:10;;;;;;;10.88;3.10;;;12.20;99.90;;;;;;4915343;29;20029;-88
2023/06/07 03:45:38;;;;;;;13.13;3.95;;;12.20;99.90;;;;;;4900216;29;20100;-88
2023/06/07 03:48:10;;;;;;;13.18;3.75;;;12.20;99.90;;;;;;4899917;29;20056;-88
2023/06/07 03:50:37;;;;;;;12.77;3.25;;;12.10;99.90;;;;;;4899985;29;20037;-88
2023/06/07 03:53:11;;;;;;;15.48;3.35;;;12.10;99.90;;;;;;4870010;29;20051;-88
2023/06/07 03:55:41;;;;;;;13.27;3.58;;;12.10;99.90;;;;;;4884467;29;20375;-88
2023/06/07 03:58:13;;;;;;;14.60;3.50;;;12.10;99.90;;;;;;4855457;29;20359;-88
2023/06/07 04:00:48;;;;;;;13.65;3.70;;;12.20;99.90;;;;;;4884381;29;20043;-88
2023/06/07 04:03:16;;;;;;;17.02;3.63;;;12.10;99.90;;;;;;4899532;29;20029;-88
2023/06/07 04:05:42;;;;;;;15.20;3.28;;;12.10;99.90;;;;;;4884624;29;20029;-88
2023/06/07 04:08:09;;;;;;;16.52;4.07;;;12.20;99.90;;;;;;4884155;29;20060;-88
2023/06/07 04:10:41;;;;;;;12.43;3.92;;;12.20;99.90;;;;;;4884729;29;20498;-88
2023/06/07 04:13:10;;;;;;;15.38;4.00;;;12.20;99.90;;;;;;4899592;29;20036;-88
2023/06/07 04:15:37;;;;;;;9.40;3.75;;;12.20;99.90;;;;;;4884478;29;20029;-88
2023/06/07 04:18:05;;;;;;;11.63;4.00;;;12.10;99.90;;;;;;4883907;29;20036;-88
2023/06/07 04:20:39;;;;;;;17.60;4.47;;;12.20;99.90;;;;;;4884234;29;20060;-88
2023/06/07 04:23:07;;;;;;;16.75;5.20;;;12.20;99.90;;;;;;4884243;29;20029;-88
2023/06/07 04:25:38;;;;;;;17.88;4.30;;;12.20;99.90;;;;;;4884712;29;20118;-88
2023/06/07 04:28:05;;;;;;;18.65;4.20;;;12.20;99.90;;;;;;4899445;29;20033;-88
2023/06/07 04:30:36;;;;;;;16.17;4.70;;;12.20;99.90;;;;;;4869404;29;20400;-88
2023/06/07 04:33:08;;;;;;;18.77;4.10;;;12.20;99.90;;;;;;4884037;29;20320;-88
2023/06/07 04:35:37;;;;;;;16.10;3.95;;;12.20;99.90;;;;;;4869018;29;20040;-88
2023/06/07 04:38:08;;;;;;;18.55;4.00;;;12.20;99.90;;;;;;4868110;29;20060;-88
2023/06/07 04:40:40;;;;;;;11.38;3.35;;;12.20;99.90;;;;;;4883672;29;20051;-88
2023/06/07 04:43:08;;;;;;;16.17;4.18;;;12.30;99.90;;;;;;4871419;29;20450;-88
2023/06/07 04:45:41;;;;;;;11.48;3.20;;;12.30;99.90;;;;;;4872794;29;20183;-87
2023/06/07 04:48:11;;;;;;;15.05;3.42;;;12.30;99.90;;;;;;4871638;29;20335;-88
2023/06/07 04:50:43;;;;;;;16.65;3.60;;;12.30;99.90;;;;;;4886908;29;20045;-88
2023/06/07 04:53:17;;;;;;;13.82;3.28;;;12.40;99.90;;;;;;4887488;29;20047;-88
2023/06/07 04:55:44;;;;;;;11.02;3.05;;;12.30;99.90;;;;;;4887479;29;20036;-88
2023/06/07 04:58:20;;;;;;;13.23;3.67;;;12.30;99.90;;;;;;4886983;29;20146;-88
2023/06/07 05:00:51;;;;;;;13.68;3.20;;;12.30;99.90;;;;;;4871860;29;20338;-88
2023/06/07 05:03:21;;;;;;;12.60;3.50;;;12.30;99.90;;;;;;4886801;29;20080;-88
2023/06/07 05:05:55;;;;;;;14.40;3.67;;;12.40;99.90;;;;;;4872712;29;20167;-88
2023/06/07 05:08:23;;;;;;;11.43;4.18;;;12.40;99.90;;;;;;4886929;29;20029;-89
2023/06/07 05:10:50;;;;;;;14.68;3.95;;;12.40;99.90;;;;;;4887311;29;20033;-88
2023/06/07 05:13:19;;;;;;;17.58;4.53;;;12.50;99.90;;;;;;4886725;29;20040;-88
2023/06/07 05:15:51;;;;;;;15.93;3.65;;;12.40;99.90;;;;;;4886751;29;20131;-88
2023/06/07 05:18:22;;;;;;;19.20;3.92;;;12.50;99.90;;;;;;4887041;29;20049;-88
2023/06/07 05:21:01;;;;;;;13.88;3.50;;;12.50;99.90;;;;;;4873571;29;20120;-89
2023/06/07 05:23:29;;;;;;;17.55;4.20;;;12.40;99.90;;;;;;4886642;29;20059;-88
2023/06/07 05:25:57;;;;;;;14.73;3.80;;;12.50;99.90;;;;;;4871563;29;20124;-88
2023/06/07 05:28:32;;;;;;;13.82;3.45;;;12.50;99.90;;;;;;4902090;29;20418;-88
2023/06/07 05:31:12;;;;;;;14.00;3.50;;;12.50;99.90;;;;;;4888259;29;20088;-88
2023/06/07 05:33:39;;;;;;;13.85;3.25;;;12.50;99.90;;;;;;4886437;29;20032;-88
2023/06/07 05:36:06;;;;;;;14.25;3.40;;;12.50;99.90;;;;;;4870897;29;20049;-89
2023/06/07 05:38:39;;;;;;;12.68;3.92;;;12.50;99.90;;;;;;4872299;29;20036;-88
2023/06/07 05:41:10;;;;;;;11.30;3.03;;;12.60;99.90;;;;;;4886413;29;20119;-87
2023/06/07 05:43:37;;;;;;;12.20;3.53;;;12.60;99.90;;;;;;4885990;29;20044;-87
2023/06/07 05:46:03;;;;;;;11.40;2.90;;;12.60;99.90;;;;;;4901993;29;20091;-88
2023/06/07 05:48:33;;;;;;;12.13;3.28;;;12.70;99.90;;;;;;4886746;29;20024;-89
2023/06/07 05:51:12;;;;;;;9.25;3.00;;;12.70;99.90;;;;;;4886362;29;20458;-87
2023/06/07 05:53:40;;;;;;;15.88;4.00;;;12.70;99.90;;;;;;4896190;29;20343;-87
2023/06/07 05:56:10;;;;;;;19.25;3.65;;;12.70;99.90;;;;;;4883122;29;20117;-87
2023/06/07 05:58:36;;;;;;;11.50;3.22;;;12.80;99.90;;;;;;4867217;29;20037;-87
2023/06/07 06:01:05;;;;;;;16.25;3.70;;;12.80;99.90;;;;;;4884001;29;20152;-88
2023/06/07 06:03:31;;;;;;;14.52;3.38;;;12.80;99.90;;;;;;4883445;29;20494;-87
2023/06/07 06:06:10;;;;;;;11.77;3.53;;;12.90;99.90;;;;;;4872644;29;20036;-87
2023/06/07 06:08:42;;;;;;;19.17;4.28;;;12.90;99.90;;;;;;4895166;29;20335;-87
2023/06/07 06:11:13;;;;;;;13.60;4.10;;;13.00;99.90;;;;;;4862168;29;20066;-88
2023/06/07 06:13:43;;;;;;;11.27;3.40;;;13.00;99.90;;;;;;4867683;29;20037;-88
2023/06/07 06:16:21;;;;;;;12.63;3.80;;;13.00;99.90;;;;;;4884084;29;20092;-87
2023/06/07 06:19:03;;;;;;;13.65;3.50;;;13.00;99.90;;;;;;4900790;29;20037;-87
2023/06/07 06:21:32;;;;;;;11.90;3.63;;;13.10;99.90;;;;;;4894234;29;20041;-87
2023/06/07 06:23:58;;;;;;;17.25;3.92;;;13.10;99.90;;;;;;4894022;29;20384;-87
2023/06/07 06:26:27;;;;;;;12.82;3.75;;;13.10;99.90;;;;;;4882813;29;20380;-87
2023/06/07 06:29:01;;;;;;;11.70;3.78;;;13.10;99.90;;;;;;4892957;29;20056;-87
2023/06/07 06:31:48;;;;;;;;;;;;;;;;;;;;;
2023/06/07 06:34:18;;;;;;;12.25;3.42;;;13.20;99.90;;;;;;4891587;29;20093;-87
2023/06/07 06:36:54;;;;;;;12.40;3.65;;;13.20;99.90;;;;;;4867766;29;20495;-87
2023/06/07 06:39:24;;;;;;;12.10;3.50;;;13.30;99.90;;;;;;4851984;29;20041;-87
2023/06/07 06:41:52;;;;;;;12.10;3.38;;;13.40;99.90;;;;;;4860574;29;20517;-90
2023/06/07 06:44:35;;;;;;;13.50;3.97;;;13.40;99.90;;;;;;4887539;29;20056;-87
2023/06/07 06:47:07;;;;;;;11.85;3.65;;;13.40;99.90;;;;;;4903823;29;20319;-91
2023/06/07 06:49:36;;;;;;;17.17;3.90;;;13.50;99.90;;;;;;4870737;29;20037;-87
2023/06/07 06:52:15;;;;;;;13.52;3.65;;;13.40;99.90;;;;;;4915953;29;20111;-92
2023/06/07 06:54:43;;;;;;;13.20;3.92;;;13.50;99.90;;;;;;4883806;29;20029;-87
2023/06/07 06:57:11;;;;;;;13.15;3.78;;;13.50;99.90;;;;;;4872591;29;20493;-87
2023/06/07 06:59:43;;;;;;;12.02;3.33;;;13.50;99.90;;;;;;4896768;29;20059;-87
2023/06/07 07:02:24;;;;;;;11.75;3.53;;;13.60;99.90;;;;;;4896401;29;20388;-87
2023/06/07 07:05:03;;;;;;;10.98;4.00;;;13.70;99.90;;;;;;4904874;29;20105;-87
2023/06/07 07:07:32;;;;;;;12.48;3.70;;;13.60;99.90;;;;;;4886021;29;20427;-87
2023/06/07 07:09:59;;;;;;;12.48;4.68;;;13.60;99.90;;;;;;4884476;29;20032;-88
2023/06/07 07:12:40;;;;;;;15.50;3.95;;;13.70;99.90;;;;;;4870657;29;20359;-87
2023/06/07 07:15:11;;;;;;;16.67;4.18;;;13.80;99.90;;;;;;4884783;29;20040;-88
2023/06/07 07:18:02;;;;;;;17.50;4.18;;;13.80;99.90;;;;;;4869076;29;20426;-89
2023/06/07 07:20:39;;;;;;;13.98;4.32;;;13.80;99.90;;;;;;4864948;29;20117;-87
2023/06/07 07:23:17;;;;;;;11.50;3.70;;;13.90;99.90;;;;;;4883765;29;20033;-87
2023/06/07 07:26:01;;;;;;;12.05;3.95;;;13.90;99.90;;;;;;4870636;29;20032;-88
2023/06/07 07:28:32;;;;;;;11.45;3.88;;;14.00;99.90;;;;;;4894118;29;20043;-88
2023/06/07 07:31:03;;;;;;;15.38;3.97;;;14.10;99.90;;;;;;4901983;29;20029;-88
2023/06/07 07:33:30;;;;;;;12.55;3.67;;;14.20;99.90;;;;;;4868306;29;20049;-87
2023/06/07 07:36:05;;;;;;;12.00;3.97;;;14.20;99.90;;;;;;4914263;29;20032;-89
2023/06/07 07:38:35;;;;;;;13.93;3.85;;;14.30;99.90;;;;;;4864901;29;20047;-88
2023/06/07 07:41:05;;;;;;;13.55;3.95;;;14.40;99.90;;;;;;4868464;29;20071;-87
2023/06/07 07:44:01;;;;;;;10.95;3.75;;;14.40;99.90;;;;;;4864413;29;20041;-87
2023/06/07 07:46:28;;;;;;;14.05;3.88;;;14.50;99.90;;;;;;4872770;29;20057;-87
2023/06/07 07:48:57;;;;;;;12.77;4.20;;;14.50;99.90;;;;;;4891408;29;20359;-88
2023/06/07 07:51:38;;;;;;;;;;;;;;;;;;;;;
2023/06/07 07:54:15;;;;;;;15.93;3.88;;;14.60;99.90;;;;;;4881294;29;20036;-87
2023/06/07 07:56:57;;;;;;;16.25;4.10;;;14.60;99.90;;;;;;4875405;29;20072;-87
2023/06/07 07:59:41;;;;;;;12.55;4.15;;;14.60;99.90;;;;;;4876085;29;20099;-88
2023/06/07 08:02:10;;;;;;;13.50;4.18;;;14.70;99.90;;;;;;4873373;29;20056;-87
2023/06/07 08:04:51;;;;;;;15.80;5.25;;;14.80;99.90;;;;;;4903446;29;20451;-87
2023/06/07 08:07:25;;;;;;;15.27;4.68;;;14.80;99.90;;;;;;4898018;29;20480;-88
2023/06/07 08:10:04;;;;;;;9.15;4.10;;;14.90;99.90;;;;;;4871886;29;20036;-87
2023/06/07 08:12:42;;;;;;;14.73;4.40;;;14.80;99.90;;;;;;4867851;29;20069;-88
2023/06/07 08:15:22;;;;;;;15.88;4.47;;;14.80;99.90;;;;;;4885826;29;20288;-89
2023/06/07 08:17:56;;;;;;;13.48;5.18;;;14.80;99.90;;;;;;4910267;29;20341;-89
2023/06/07 08:20:26;;;;;;;14.60;4.97;;;14.80;99.90;;;;;;4902224;29;20395;-89
2023/06/07 08:23:17;;;;;;;15.93;4.50;;;14.80;99.90;;;;;;4860301;29;20040;-90
2023/06/07 08:25:50;;;;;;;14.25;4.30;;;14.90;99.90;;;;;;4868269;29;20037;-88
2023/06/07 08:28:31;;;;;;;13.68;4.80;;;15.00;99.90;;;;;;4888344;29;20025;-88
2023/06/07 08:31:03;;;;;;;13.02;4.43;;;15.30;99.90;;;;;;4884184;29;20053;-87
2023/06/07 08:33:32;;;;;;;16.15;5.93;;;15.30;99.90;;;;;;4886558;29;20036;-88
2023/06/07 08:36:03;;;;;;;17.58;5.10;;;15.40;99.90;;;;;;4869219;29;20093;-87
2023/06/07 08:38:43;;;;;;;16.23;5.10;;;15.30;99.90;;;;;;4869883;29;20120;-87
2023/06/07 08:41:12;;;;;;;11.70;4.40;;;15.30;99.90;;;;;;4886957;29;20343;-87
2023/06/07 08:43:49;;;;;;;12.93;4.43;;;15.30;99.90;;;;;;4872266;29;20193;-87
2023/06/07 08:46:23;;;;;;;15.95;5.32;;;15.30;99.90;;;;;;4903059;29;20028;-89
2023/06/07 08:48:55;;;;;;;13.90;4.43;;;15.30;99.90;;;;;;4902726;29;20064;-87
2023/06/07 08:51:41;;;;;;;19.90;4.65;;;15.40;99.90;;;;;;4902566;29;20032;-87
2023/06/07 08:54:15;;;;;;;13.48;4.97;;;15.50;99.90;;;;;;4917810;29;20040;-88
2023/06/07 08:57:09;;;;;;;20.27;5.50;;;15.70;99.90;;;;;;4915694;29;20187;-88
2023/06/07 08:59:51;;;;;;;12.55;4.47;;;15.70;99.90;;;;;;4888317;29;20032;-88
2023/06/07 09:02:39;;;;;;;14.30;4.63;;;15.80;99.90;;;;;;4897598;29;20037;-90
2023/06/07 09:05:44;;;;;;;12.93;4.18;;;15.90;99.90;;;;;;4883915;29;20021;-88
2023/06/07 09:08:13;;;;;;;15.82;4.75;;;16.00;99.90;;;;;;4884122;29;20047;-88
2023/06/07 09:11:00;;;;;;;15.27;4.47;;;16.00;99.90;;;;;;4888880;29;20111;-88
2023/06/07 09:13:50;;;;;;;16.38;4.50;;;16.00;99.90;;;;;;4860531;29;20105;-88
2023/06/07 09:17:04;;;;;;;;;;;;;;;;;;;;;
2023/06/07 09:20:12;;;;;;;15.70;4.20;;;16.00;99.90;;;;;;4889812;29;20047;-89
2023/06/07 09:23:05;;;;;;;12.35;4.22;;;16.10;99.90;;;;;;4882858;29;20115;-89
2023/06/07 09:26:12;;;;;;;;;;;;;;;;;;;;;
2023/06/07 09:28:50;;;;;;;11.88;4.35;;;16.50;99.90;;;;;;4884178;29;20032;-89
2023/06/07 09:31:32;;;;;;;13.40;4.28;;;16.60;99.90;;;;;;4890765;29;20051;-86
2023/06/07 09:34:07;;;;;;;13.52;3.78;;;16.70;99.90;;;;;;4868629;29;20041;-87
2023/06/07 09:36:56;;;;;;;11.38;4.10;;;16.80;99.90;;;;;;4868179;29;20103;-86
2023/06/07 09:39:28;;;;;;;8.30;3.60;;;16.90;99.90;;;;;;4886223;29;20034;-87
2023/06/07 09:41:59;;;;;;;10.40;3.75;;;16.90;99.90;;;;;;4886312;29;20085;-88
2023/06/07 09:44:26;;;;;;;18.10;4.25;;;16.90;99.90;;;;;;4870400;29;20081;-87
2023/06/07 09:46:57;;;;;;;13.82;3.90;;;16.90;99.90;;;;;;4871572;29;20040;-87
2023/06/07 09:49:31;;;;;;;12.70;3.72;;;16.80;99.90;;;;;;4853240;29;20037;-87
2023/06/07 09:52:05;;;;;;;12.10;3.70;;;16.80;99.90;;;;;;4868811;29;20335;-86
2023/06/07 09:54:39;;;;;;;12.32;3.90;;;16.90;99.90;;;;;;4882988;29;20072;-86
2023/06/07 09:57:28;;;;;;;15.68;4.35;;;16.90;99.90;;;;;;4880560;29;20080;-86
2023/06/07 10:00:21;;;;;;;10.55;4.00;;;17.00;99.90;;;;;;4887167;29;20100;-86
2023/06/07 10:02:50;;;;;;;13.30;4.13;;;17.00;99.90;;;;;;4886313;29;20040;-86
2023/06/07 10:05:21;;;;;;;17.80;4.97;;;17.00;99.90;;;;;;4917725;29;20037;-86
2023/06/07 10:07:54;;;;;;;12.50;4.38;;;17.20;99.90;;;;;;4903296;29;20035;-87
2023/06/07 10:10:24;;;;;;;15.43;4.38;;;17.20;99.90;;;;;;4885433;29;20032;-87
2023/06/07 10:13:01;;;;;;;13.13;4.47;;;17.20;99.90;;;;;;4886042;29;20041;-87
2023/06/07 10:15:46;;;;;;;15.88;4.03;;;17.30;99.90;;;;;;4869776;29;20453;-87
2023/06/07 10:18:27;;;;;;;15.93;4.95;;;17.30;99.90;;;;;;4896221;29;20040;-87
2023/06/07 10:21:19;;;;;;;;;;;;;;;;;;;;;
2023/06/07 10:24:13;;;;;;;14.80;4.63;;;17.50;99.90;;;;;;4913725;29;20316;-86
2023/06/07 10:26:52;;;;;;;12.68;4.57;;;17.40;99.90;;;;;;4897945;29;20052;-87
2023/06/07 10:29:46;;;;;;;13.10;4.18;;;17.50;99.90;;;;;;4897765;29;20033;-87
2023/06/07 10:32:30;;;;;;;14.63;4.43;;;17.60;99.90;;;;;;4882863;29;20033;-88
2023/06/07 10:35:06;;;;;;;18.08;4.78;;;17.60;99.90;;;;;;4915844;29;20024;-87
2023/06/07 10:37:58;;;;;;;13.32;4.47;;;17.70;99.90;;;;;;4887306;29;20087;-87
2023/06/07 10:40:29;;;;;;;18.55;5.00;;;17.70;99.90;;;;;;4899969;29;20128;-87
2023/06/07 10:43:07;;;;;;;11.77;4.60;;;17.80;99.90;;;;;;4866958;29;20037;-87
2023/06/07 10:45:38;;;;;;;14.32;5.03;;;17.80;99.90;;;;;;4851470;29;20517;-87
2023/06/07 10:48:35;;;;;;;12.23;5.30;;;17.80;99.90;;;;;;4864580;29;20108;-87
2023/06/07 10:51:02;;;;;;;15.15;4.60;;;17.90;99.90;;;;;;4881176;29;20044;-88
2023/06/07 10:53:48;;;;;;;13.40;4.82;;;17.90;99.90;;;;;;4880611;29;20040;-89
2023/06/07 10:56:30;;;;;;;;;;;18.00;99.90;;;;;;4881792;29;20047;-88
2023/06/07 10:59:21;;;;;;;13.27;4.68;;;18.10;99.90;;;;;;4865701;29;19915;-88
2023/06/07 11:01:52;;;;;;;14.23;5.10;;;18.20;99.90;;;;;;4893462;29;20139;-90
2023/06/07 11:04:39;;;;;;;14.73;4.43;;;18.30;99.90;;;;;;4883454;29;20036;-89
2023/06/07 11:07:30;;;;;;;14.35;4.68;;;18.30;99.90;;;;;;4899347;29;20064;-88
2023/06/07 11:10:05;;;;;;;14.82;5.55;;;18.40;99.90;;;;;;4899556;29;20028;-88
2023/06/07 11:12:37;;;;;;;13.00;4.57;;;18.40;99.90;;;;;;4871576;29;20051;-88
2023/06/07 11:15:25;;;;;;;12.75;4.15;;;18.40;99.90;;;;;;4858029;29;20223;-89
2023/06/07 11:18:01;;;;;;;14.13;4.53;;;18.40;99.90;;;;;;4881954;29;20143;-88
2023/06/07 11:20:49;;;;;;;;;;;;;;;;;;;;;
2023/06/07 11:23:41;;;;;;;;;;;;;;;;;;;;;
2023/06/07 11:26:25;;;;;;;9.30;4.15;;;18.60;99.90;;;;;;4914843;29;20122;-88
2023/06/07 11:29:01;;;;;;;13.73;4.15;;;18.60;99.90;;;;;;4882794;29;20041;-88
2023/06/07 11:31:39;;;;;;;13.23;4.55;;;18.60;99.90;;;;;;4870226;29;20449;-87
2023/06/07 11:34:16;;;;;;;15.20;4.88;;;18.70;99.90;;;;;;4865422;29;20036;-88
2023/06/07 11:37:24;;;;;;;12.35;4.72;;;18.70;99.90;;;;;;4878932;29;20053;-88
2023/06/07 11:40:14;;;;;;;17.00;5.10;;;18.80;99.90;;;;;;4864651;29;20041;-88
2023/06/07 11:43:05;;;;;;;14.65;4.78;;;18.90;99.90;;;;;;4865320;29;20041;-88
2023/06/07 11:45:53;;;;;;;13.27;5.25;;;18.80;99.90;;;;;;4892004;29;20037;-89
2023/06/07 11:48:32;;;;;;;13.05;4.72;;;18.90;99.90;;;;;;4866399;29;20041;-91
2023/06/07 11:51:02;;;;;;;16.67;4.78;;;18.80;99.90;;;;;;4880614;29;20431;-88
2023/06/07 11:53:59;;;;;;;16.95;5.10;;;19.00;99.90;;;;;;4880555;29;20450;-87
2023/06/07 11:56:37;;;;;;;17.65;4.80;;;19.00;99.90;;;;;;4880943;29;20131;-87
2023/06/07 11:59:41;;;;;;;12.40;4.30;;;19.10;99.90;;;;;;4881522;29;20049;-87
2023/06/07 12:02:21;;;;;;;15.55;4.82;;;19.20;99.90;;;;;;4865374;29;20037;-87
2023/06/07 12:04:52;;;;;;;11.57;4.43;;;19.30;99.90;;;;;;4896227;29;20047;-87
2023/06/07 12:07:39;;;;;;;13.82;4.88;;;19.20;99.90;;;;;;4880323;29;20040;-89
2023/06/07 12:10:23;;;;;;;14.32;4.93;;;19.20;99.90;;;;;;4880982;29;20032;-87
2023/06/07 12:13:35;;;;;;;12.77;4.15;;;19.30;99.90;;;;;;4865443;29;20124;-87
2023/06/07 12:16:28;;;;;;;12.52;4.20;;;19.40;99.90;;;;;;4820103;29;20131;-87
2023/06/07 12:19:24;;;;;;;12.18;3.97;;;19.40;99.90;;;;;;4880492;29;20089;-88
2023/06/07 12:22:15;;;;;;;14.93;4.32;;;19.40;99.90;;;;;;4864803;29;20065;-87
2023/06/07 12:25:05;;;;;;;14.02;4.10;;;19.50;99.90;;;;;;4883314;29;20067;-88
2023/06/07 12:28:06;;;;;;;11.88;4.70;;;19.60;99.90;;;;;;4892870;29;20057;-88
2023/06/07 12:30:50;;;;;;;10.63;3.72;;;19.60;99.90;;;;;;4898785;29;20040;-88
2023/06/07 12:33:21;;;;;;;13.15;4.75;;;19.70;99.90;;;;;;4878457;29;20441;-87
2023/06/07 12:35:51;;;;;;;10.98;4.25;;;19.70;99.90;;;;;;4903611;29;20032;-88
2023/06/07 12:38:27;;;;;;;12.13;4.28;;;19.60;99.90;;;;;;4868436;29;20054;-87
2023/06/07 12:41:02;;;;;;;14.70;4.03;;;19.50;99.90;;;;;;4867978;29;20044;-87
2023/06/07 12:43:36;;;;;;;19.38;5.68;;;19.50;99.90;;;;;;4882755;29;20107;-90
2023/06/07 12:46:36;;;;;;;11.77;4.68;;;19.50;99.90;;;;;;4858033;29;20350;-88
2023/06/07 12:49:07;;;;;;;16.13;4.57;;;19.60;99.90;;;;;;4867622;29;20064;-87
2023/06/07 12:51:52;;;;;;;14.50;4.72;;;19.60;99.90;;;;;;4881591;29;20052;-88
2023/06/07 12:54:26;;;;;;;14.70;4.60;;;19.40;99.90;;;;;;4878367;29;20045;-87
2023/06/07 12:56:55;;;;;;;12.93;4.40;;;19.40;99.90;;;;;;4898792;29;20131;-88
2023/06/07 12:59:27;;;;;;;11.98;4.70;;;19.50;99.90;;;;;;4913924;29;20033;-88
2023/06/07 13:01:53;;;;;;;15.02;5.00;;;19.40;99.90;;;;;;4860615;29;20112;-88
2023/06/07 13:04:39;;;;;;;13.85;4.35;;;19.40;99.90;;;;;;4877776;29;20392;-88
2023/06/07 13:07:26;;;;;;;12.80;4.88;;;19.30;99.90;;;;;;4892852;29;20021;-89
2023/06/07 13:10:21;;;;;;;;;;;;;;;;;;;;;
2023/06/07 13:13:11;;;;;;;11.83;4.53;;;19.30;99.90;;;;;;4886957;29;20112;-87
2023/06/07 13:15:47;;;;;;;10.15;4.28;;;19.50;99.90;;;;;;4872427;29;20124;-87
2023/06/07 13:18:25;;;;;;;11.95;4.85;;;19.60;99.90;;;;;;4863939;29;20516;-87
2023/06/07 13:21:08;;;;;;;11.73;5.85;;;19.70;99.90;;;;;;4877169;29;20043;-87
2023/06/07 13:23:41;;;;;;;15.98;5.30;;;19.70;99.90;;;;;;4867666;29;20051;-89
2023/06/07 13:26:21;;;;;;;13.88;5.20;;;19.60;99.90;;;;;;4850298;29;20037;-89
2023/06/07 13:29:05;;;;;;;;;;;;;;;;;;;;;
2023/06/07 13:31:37;;;;;;;13.45;5.03;;;19.70;99.90;;;;;;4899734;29;20040;-89
2023/06/07 13:34:06;;;;;;;16.48;5.32;;;19.70;99.90;;;;;;4884747;29;20045;-88